Time;durP1;ratioP1;P1;durP2;ratioP2;P2;SDS_P1;SDS_P2;PMS_P1;PMS_P2;Temp;Humidity;BMP_temperature;BMP_pressure;BME280_temperature;BME280_humidity;BME280_pressure;Samples;Min_cycle;Max_cycle;Signal;HPM_P1;HPM_P2
2022/04/09 00:02:22;;;;;;;16.35;2.17;;;6.90;99.90;;;;;;5054955;28;20069;-75
2022/04/09 00:04:47;;;;;;;14.45;2.22;;;6.80;99.90;;;;;;5054602;28;20095;-75
2022/04/09 00:07:14;;;;;;;10.10;1.48;;;6.60;99.90;;;;;;5021422;28;20057;-76
2022/04/09 00:09:39;;;;;;;13.27;1.77;;;6.60;99.90;;;;;;5054769;28;20129;-75
2022/04/09 00:12:05;;;;;;;13.30;2.30;;;6.60;99.90;;;;;;5037955;28;20128;-75
2022/04/09 00:14:31;;;;;;;12.30;1.60;;;6.70;99.90;;;;;;5055205;28;20128;-75
2022/04/09 00:16:57;;;;;;;10.98;1.70;;;6.70;99.90;;;;;;5038336;28;20163;-75
2022/04/09 00:19:23;;;;;;;13.02;1.60;;;6.60;99.90;;;;;;5054828;28;20056;-75
2022/04/09 00:21:48;;;;;;;10.90;2.30;;;6.50;99.90;;;;;;5037516;28;20045;-76
2022/04/09 00:24:14;;;;;;;14.43;2.03;;;6.40;99.90;;;;;;5037799;28;20048;-75
2022/04/09 00:26:40;;;;;;;11.60;2.00;;;6.40;99.90;;;;;;5054874;28;20123;-75
2022/04/09 00:29:06;;;;;;;15.13;1.73;;;6.30;99.90;;;;;;5054474;28;20045;-75
2022/04/09 00:31:32;;;;;;;18.70;2.33;;;6.30;99.90;;;;;;5054727;28;20110;-75
2022/04/09 00:33:59;;;;;;;14.45;1.92;;;6.40;99.90;;;;;;5054607;28;20050;-75
2022/04/09 00:36:25;;;;;;;12.93;2.17;;;6.20;99.90;;;;;;5054465;28;20187;-75
2022/04/09 00:38:51;;;;;;;9.90;1.95;;;6.50;99.90;;;;;;5054177;28;20174;-75
2022/04/09 00:41:17;;;;;;;16.85;2.20;;;6.40;99.90;;;;;;5037408;28;20139;-75
2022/04/09 00:43:43;;;;;;;9.63;1.85;;;6.30;99.90;;;;;;5054243;28;20052;-75
2022/04/09 00:46:12;;;;;;;18.70;2.35;;;6.30;99.90;;;;;;5054326;28;20048;-75
2022/04/09 00:48:38;;;;;;;14.10;1.92;;;6.40;99.90;;;;;;5037539;28;20059;-75
2022/04/09 00:51:04;;;;;;;15.35;1.77;;;6.40;99.90;;;;;;5037061;28;20128;-76
2022/04/09 00:53:39;;;;;;;13.90;1.90;;;6.40;99.90;;;;;;5054002;28;20041;-75
2022/04/09 00:56:20;;;;;;;13.70;1.60;;;6.20;99.90;;;;;;5053881;28;20057;-75
2022/04/09 00:59:06;;;;;;;15.20;1.98;;;6.20;99.90;;;;;;5039823;28;20186;-75
2022/04/09 01:01:34;;;;;;;12.05;1.63;;;6.20;99.90;;;;;;5053225;28;20060;-76
2022/04/09 01:04:04;;;;;;;11.18;1.50;;;6.20;99.90;;;;;;5053985;28;20127;-75
2022/04/09 01:06:32;;;;;;;9.23;1.30;;;6.00;99.90;;;;;;5053400;28;20136;-75
2022/04/09 01:08:58;;;;;;;7.60;1.17;;;6.10;99.90;;;;;;5053081;28;20191;-75
2022/04/09 01:11:24;;;;;;;8.57;1.20;;;6.20;99.90;;;;;;5053257;28;20127;-75
2022/04/09 01:13:51;;;;;;;8.48;1.35;;;6.30;99.90;;;;;;5053388;28;20037;-75
2022/04/09 01:16:16;;;;;;;8.25;1.42;;;6.20;99.90;;;;;;5053424;28;20368;-76
2022/04/09 01:18:42;;;;;;;6.57;1.15;;;6.10;99.90;;;;;;5053617;28;20087;-75
2022/04/09 01:21:08;;;;;;;6.35;0.90;;;6.20;99.90;;;;;;5053517;28;20097;-75
2022/04/09 01:23:33;;;;;;;5.50;1.13;;;6.20;99.90;;;;;;5053194;28;20566;-75
2022/04/09 01:26:01;;;;;;;10.77;1.40;;;6.30;99.90;;;;;;5053288;28;20056;-75
2022/04/09 01:28:27;;;;;;;9.70;1.27;;;6.30;99.90;;;;;;5053157;28;20048;-76
2022/04/09 01:30:54;;;;;;;4.40;0.52;;;6.40;99.90;;;;;;5036527;28;20051;-76
2022/04/09 01:33:21;;;;;;;6.50;0.95;;;6.40;99.90;;;;;;5053157;28;20140;-75
2022/04/09 01:35:48;;;;;;;8.60;1.08;;;6.30;99.90;;;;;;5053174;28;20049;-76
2022/04/09 01:38:14;;;;;;;7.65;1.38;;;6.30;99.90;;;;;;5052634;28;20045;-75
2022/04/09 01:40:40;;;;;;;6.60;1.25;;;6.40;99.90;;;;;;5036026;28;20075;-76
2022/04/09 01:43:06;;;;;;;14.18;1.52;;;6.50;99.90;;;;;;5052858;28;20488;-77
2022/04/09 01:45:32;;;;;;;11.32;1.10;;;6.50;99.90;;;;;;5052974;28;20052;-76
2022/04/09 01:47:58;;;;;;;7.55;1.15;;;6.50;99.90;;;;;;5053133;28;20049;-76
2022/04/09 01:50:27;;;;;;;6.63;1.73;;;6.50;99.90;;;;;;5052699;28;20040;-76
2022/04/09 01:52:54;;;;;;;10.45;1.30;;;6.50;99.90;;;;;;5052896;28;20061;-76
2022/04/09 01:55:20;;;;;;;13.02;1.83;;;6.40;99.90;;;;;;5053044;28;20044;-76
2022/04/09 01:57:47;;;;;;;10.75;1.23;;;6.30;99.90;;;;;;5035870;28;20060;-76
2022/04/09 02:00:14;;;;;;;11.05;1.45;;;6.40;99.90;;;;;;5052945;28;20088;-76
2022/04/09 02:02:41;;;;;;;10.20;1.48;;;6.40;99.90;;;;;;5052618;28;20057;-76
2022/04/09 02:05:08;;;;;;;14.40;1.98;;;6.30;99.90;;;;;;5052682;28;20487;-76
2022/04/09 02:07:35;;;;;;;14.90;1.67;;;6.20;99.90;;;;;;5052022;28;20049;-75
2022/04/09 02:10:03;;;;;;;10.40;1.38;;;6.30;99.90;;;;;;5052699;28;20053;-75
2022/04/09 02:12:33;;;;;;;9.63;1.35;;;6.10;99.90;;;;;;5052120;28;20045;-76
2022/04/09 02:15:07;;;;;;;15.68;1.48;;;6.10;99.90;;;;;;5053130;28;20403;-76
2022/04/09 02:17:35;;;;;;;12.50;1.50;;;6.00;99.90;;;;;;5035964;28;20092;-75
2022/04/09 02:20:02;;;;;;;9.27;1.30;;;5.80;99.90;;;;;;5052470;28;20052;-75
2022/04/09 02:22:40;;;;;;;12.55;1.52;;;5.80;99.90;;;;;;5051717;28;20183;-75
2022/04/09 02:25:09;;;;;;;12.07;1.70;;;5.60;99.90;;;;;;5035782;28;20045;-76
2022/04/09 02:27:34;;;;;;;11.98;1.65;;;5.70;99.90;;;;;;5052543;28;20128;-76
2022/04/09 02:30:01;;;;;;;15.15;1.77;;;5.80;99.90;;;;;;5052432;28;20203;-76
2022/04/09 02:32:27;;;;;;;13.60;1.65;;;5.80;99.90;;;;;;5052166;28;20434;-76
2022/04/09 02:34:53;;;;;;;10.90;1.65;;;5.80;99.90;;;;;;5052481;28;20064;-75
2022/04/09 02:37:20;;;;;;;15.15;2.05;;;5.80;99.90;;;;;;5052003;28;20095;-76
2022/04/09 02:39:46;;;;;;;11.73;1.30;;;5.80;99.90;;;;;;5051989;28;20056;-76
2022/04/09 02:42:12;;;;;;;13.52;1.58;;;5.90;99.90;;;;;;5051993;28;20064;-76
2022/04/09 02:44:39;;;;;;;17.77;1.92;;;6.00;99.90;;;;;;5035565;28;20064;-76
2022/04/09 02:47:05;;;;;;;9.73;1.35;;;6.00;99.90;;;;;;5035497;28;20088;-76
2022/04/09 02:49:30;;;;;;;14.68;1.75;;;5.90;99.90;;;;;;5052083;28;20045;-76
2022/04/09 02:51:56;;;;;;;20.38;1.88;;;5.90;99.90;;;;;;5052096;28;20045;-77
2022/04/09 02:54:22;;;;;;;16.10;1.70;;;6.00;99.90;;;;;;5035201;28;20061;-76
2022/04/09 02:56:48;;;;;;;13.25;1.70;;;6.10;99.90;;;;;;5035735;28;20045;-76
2022/04/09 02:59:13;;;;;;;10.93;1.52;;;6.20;99.90;;;;;;5052075;28;20437;-76
2022/04/09 03:01:41;;;;;;;12.35;1.60;;;6.30;99.90;;;;;;5052217;28;20476;-76
2022/04/09 03:04:07;;;;;;;13.30;1.80;;;6.10;99.90;;;;;;5051881;28;20041;-76
2022/04/09 03:06:33;;;;;;;6.53;1.33;;;6.10;99.90;;;;;;5052262;28;20053;-76
2022/04/09 03:08:59;;;;;;;9.05;1.42;;;5.90;99.90;;;;;;5051379;28;20048;-75
2022/04/09 03:11:25;;;;;;;16.20;1.40;;;5.90;99.90;;;;;;5052106;28;20051;-76
2022/04/09 03:13:50;;;;;;;17.77;1.58;;;6.00;99.90;;;;;;5052195;28;20045;-76
2022/04/09 03:16:16;;;;;;;12.75;1.73;;;5.90;99.90;;;;;;5051948;28;20047;-76
2022/04/09 03:18:42;;;;;;;17.02;1.50;;;6.00;99.90;;;;;;5035470;28;20429;-75
2022/04/09 03:21:07;;;;;;;11.07;1.80;;;5.90;99.90;;;;;;5051717;28;20041;-76
2022/04/09 03:23:33;;;;;;;6.40;1.30;;;5.90;99.90;;;;;;5035580;28;20045;-76
2022/04/09 03:25:59;;;;;;;12.75;1.38;;;5.80;99.90;;;;;;5035377;28;20041;-76
2022/04/09 03:28:26;;;;;;;10.68;1.70;;;5.70;99.90;;;;;;5035376;28;20383;-76
2022/04/09 03:30:51;;;;;;;12.43;1.58;;;5.90;99.90;;;;;;5051498;28;20551;-76
2022/04/09 03:33:18;;;;;;;10.75;1.40;;;6.00;99.90;;;;;;5053714;28;20052;-76
2022/04/09 03:35:43;;;;;;;12.27;1.73;;;6.00;99.90;;;;;;5056828;28;20053;-76
2022/04/09 03:38:12;;;;;;;11.55;1.95;;;6.00;99.90;;;;;;5054691;28;20041;-76
2022/04/09 03:40:41;;;;;;;14.45;1.92;;;5.90;99.90;;;;;;5054941;28;20053;-76
2022/04/09 03:43:07;;;;;;;10.52;1.52;;;5.90;99.90;;;;;;5055302;28;20049;-75
2022/04/09 03:45:33;;;;;;;11.70;1.40;;;5.80;99.90;;;;;;5038800;28;20056;-75
2022/04/09 03:47:59;;;;;;;20.42;1.80;;;5.80;99.90;;;;;;5038569;28;20059;-75
2022/04/09 03:50:24;;;;;;;13.10;1.58;;;5.80;99.90;;;;;;5022249;28;20123;-76
2022/04/09 03:52:50;;;;;;;10.48;1.70;;;5.70;99.90;;;;;;5038346;28;20049;-76
2022/04/09 03:55:16;;;;;;;7.80;1.33;;;5.60;99.90;;;;;;5055574;28;20049;-76
2022/04/09 03:57:42;;;;;;;11.25;1.40;;;5.50;99.90;;;;;;5038378;28;20135;-76
2022/04/09 04:00:13;;;;;;;13.30;1.90;;;5.30;99.90;;;;;;5055205;28;20422;-76
2022/04/09 04:02:39;;;;;;;13.27;1.40;;;5.30;99.90;;;;;;5055264;28;20479;-75
2022/04/09 04:05:06;;;;;;;18.05;1.80;;;5.20;99.90;;;;;;5054964;28;20057;-76
2022/04/09 04:07:33;;;;;;;5.68;1.20;;;5.10;99.90;;;;;;5054457;28;20438;-75
2022/04/09 04:10:09;;;;;;;12.60;1.30;;;5.10;99.90;;;;;;5054928;28;20053;-75
2022/04/09 04:12:35;;;;;;;10.30;1.20;;;5.10;99.90;;;;;;5054808;28;20133;-76
2022/04/09 04:15:02;;;;;;;12.32;1.23;;;5.20;99.90;;;;;;5054728;28;20487;-75
2022/04/09 04:17:43;;;;;;;14.95;1.88;;;5.10;99.90;;;;;;5038227;28;20451;-75
2022/04/09 04:20:11;;;;;;;9.68;1.15;;;5.10;99.90;;;;;;5055203;28;20114;-75
2022/04/09 04:22:37;;;;;;;12.18;1.88;;;5.00;99.90;;;;;;5054518;28;20053;-75
2022/04/09 04:25:06;;;;;;;9.25;1.67;;;5.10;99.90;;;;;;5054679;28;20047;-76
2022/04/09 04:27:32;;;;;;;6.85;1.25;;;5.20;99.90;;;;;;5054612;28;20491;-76
2022/04/09 04:30:03;;;;;;;10.98;1.27;;;5.30;99.90;;;;;;5054627;28;20088;-76
2022/04/09 04:32:29;;;;;;;10.80;1.27;;;5.30;99.90;;;;;;5053989;28;20400;-76
2022/04/09 04:34:55;;;;;;;11.00;1.38;;;5.20;99.90;;;;;;5037848;28;20059;-76
2022/04/09 04:37:21;;;;;;;8.38;1.20;;;5.20;99.90;;;;;;5053894;28;20095;-76
2022/04/09 04:39:46;;;;;;;15.00;1.85;;;5.20;99.90;;;;;;5037409;28;20088;-76
2022/04/09 04:42:12;;;;;;;17.13;1.67;;;5.20;99.90;;;;;;5037568;28;20045;-76
2022/04/09 04:44:37;;;;;;;8.88;1.35;;;5.20;99.90;;;;;;5053055;28;20057;-76
2022/04/09 04:47:04;;;;;;;10.85;1.25;;;5.20;99.90;;;;;;5054078;28;20045;-75
2022/04/09 04:49:29;;;;;;;6.63;1.45;;;5.20;99.90;;;;;;5054372;28;20102;-76
2022/04/09 04:51:55;;;;;;;15.77;1.73;;;5.30;99.90;;;;;;5053818;28;20045;-76
2022/04/09 04:54:21;;;;;;;11.77;1.67;;;5.30;99.90;;;;;;5053671;28;20104;-76
2022/04/09 04:56:46;;;;;;;7.53;1.10;;;5.20;99.90;;;;;;5053742;28;20060;-76
2022/04/09 04:59:12;;;;;;;9.88;1.25;;;5.20;99.90;;;;;;5054032;28;20048;-76
2022/04/09 05:01:40;;;;;;;10.55;1.67;;;5.20;99.90;;;;;;5054027;28;20049;-76
2022/04/09 05:04:06;;;;;;;9.85;1.10;;;5.20;99.90;;;;;;5037673;28;20063;-76
2022/04/09 05:06:32;;;;;;;12.10;1.48;;;5.30;99.90;;;;;;5053642;28;20476;-76
2022/04/09 05:08:58;;;;;;;12.40;1.30;;;5.30;99.90;;;;;;5053409;28;20055;-76
2022/04/09 05:11:24;;;;;;;11.13;0.93;;;5.30;99.90;;;;;;5053574;28;20056;-76
2022/04/09 05:13:50;;;;;;;9.43;1.40;;;5.30;99.90;;;;;;5053616;28;20036;-76
2022/04/09 05:16:15;;;;;;;15.73;1.52;;;5.30;99.90;;;;;;5036550;28;20048;-76
2022/04/09 05:18:41;;;;;;;12.32;1.40;;;5.20;99.90;;;;;;5053276;28;20045;-76
2022/04/09 05:21:07;;;;;;;15.13;1.20;;;5.10;99.90;;;;;;5037142;28;20045;-76
2022/04/09 05:23:33;;;;;;;6.95;1.33;;;5.20;99.90;;;;;;5053350;28;20136;-76
2022/04/09 05:25:58;;;;;;;13.35;2.40;;;5.20;99.90;;;;;;5053288;28;20056;-76
2022/04/09 05:28:24;;;;;;;13.15;2.50;;;5.20;99.90;;;;;;5053314;28;20053;-76
2022/04/09 05:30:50;;;;;;;16.55;3.35;;;5.30;99.90;;;;;;5036869;28;20774;-76
2022/04/09 05:33:17;;;;;;;14.25;3.88;;;5.30;99.90;;;;;;5053381;28;20392;-76
2022/04/09 05:35:43;;;;;;;13.95;3.15;;;5.40;99.90;;;;;;5053489;28;20053;-77
2022/04/09 05:38:09;;;;;;;17.27;2.22;;;5.50;99.90;;;;;;5036373;28;20060;-76
2022/04/09 05:40:36;;;;;;;9.50;1.95;;;5.50;99.90;;;;;;5036085;28;20515;-77
2022/04/09 05:43:02;;;;;;;18.48;2.42;;;5.50;99.90;;;;;;5052876;28;20132;-77
2022/04/09 05:45:28;;;;;;;13.45;4.00;;;5.60;99.90;;;;;;5053031;28;20045;-76
2022/04/09 05:47:54;;;;;;;14.13;2.22;;;5.40;99.90;;;;;;5053134;28;20051;-76
2022/04/09 05:50:20;;;;;;;19.58;1.90;;;5.50;99.90;;;;;;5052950;28;20130;-76
2022/04/09 05:52:46;;;;;;;12.65;1.38;;;5.60;99.90;;;;;;5052595;28;20045;-76
2022/04/09 05:55:11;;;;;;;14.88;2.85;;;5.70;99.90;;;;;;5052490;28;20099;-77
2022/04/09 05:57:37;;;;;;;10.52;1.25;;;5.80;99.90;;;;;;5036167;28;20047;-77
2022/04/09 06:00:05;;;;;;;11.73;1.20;;;5.90;99.90;;;;;;5052870;28;20041;-76
2022/04/09 06:02:30;;;;;;;12.07;1.20;;;5.60;99.90;;;;;;5052670;28;20048;-76
2022/04/09 06:04:57;;;;;;;6.32;1.00;;;5.40;99.90;;;;;;5053075;28;20118;-76
2022/04/09 06:07:24;;;;;;;11.95;1.08;;;5.40;99.90;;;;;;5052226;28;20538;-77
2022/04/09 06:09:51;;;;;;;9.10;1.58;;;5.50;99.90;;;;;;5052772;28;20053;-76
2022/04/09 06:12:17;;;;;;;7.65;1.00;;;5.50;99.90;;;;;;5035721;28;20510;-77
2022/04/09 06:14:43;;;;;;;9.70;1.27;;;5.50;99.90;;;;;;5036002;28;20052;-76
2022/04/09 06:17:08;;;;;;;9.50;1.50;;;5.60;99.90;;;;;;5052350;28;20040;-76
2022/04/09 06:19:35;;;;;;;10.80;1.27;;;5.90;99.90;;;;;;5052628;28;20052;-76
2022/04/09 06:22:01;;;;;;;5.55;1.30;;;6.00;99.90;;;;;;5052614;28;20056;-76
2022/04/09 06:24:27;;;;;;;16.88;1.58;;;6.10;99.90;;;;;;5052297;28;20056;-76
2022/04/09 06:26:52;;;;;;;17.40;1.90;;;6.00;99.90;;;;;;5052271;28;20072;-76
2022/04/09 06:29:18;;;;;;;12.43;1.80;;;5.80;99.90;;;;;;5052416;28;20361;-76
2022/04/09 06:31:47;;;;;;;15.23;2.03;;;5.70;99.90;;;;;;5052293;28;20037;-76
2022/04/09 06:34:14;;;;;;;19.38;2.33;;;5.80;99.90;;;;;;5052352;28;20052;-76
2022/04/09 06:36:39;;;;;;;13.82;1.77;;;6.10;99.90;;;;;;5035812;28;20566;-76
2022/04/09 06:39:05;;;;;;;13.52;2.70;;;6.20;99.90;;;;;;5052094;28;20135;-76
2022/04/09 06:41:31;;;;;;;14.05;2.55;;;6.20;99.90;;;;;;5051920;28;20064;-76
2022/04/09 06:43:58;;;;;;;12.50;2.15;;;6.30;99.90;;;;;;5053264;28;20398;-76
2022/04/09 06:46:24;;;;;;;17.77;2.33;;;6.30;99.90;;;;;;5052188;28;20208;-76
2022/04/09 06:48:50;;;;;;;19.80;2.97;;;6.40;99.90;;;;;;5052280;28;20132;-76
2022/04/09 06:51:16;;;;;;;26.65;5.30;;;6.40;99.90;;;;;;5035584;28;20423;-76
2022/04/09 06:53:42;;;;;;;27.13;3.83;;;6.60;99.90;;;;;;5052192;28;20053;-76
2022/04/09 06:56:07;;;;;;;20.88;2.80;;;6.50;99.90;;;;;;5035581;28;20049;-76
2022/04/09 06:58:34;;;;;;;21.50;2.33;;;6.50;99.90;;;;;;5035606;28;20487;-76
2022/04/09 07:01:03;;;;;;;15.57;2.60;;;6.40;99.90;;;;;;5035619;28;20044;-76
2022/04/09 07:03:29;;;;;;;18.08;2.08;;;6.40;99.90;;;;;;5035403;28;20549;-76
2022/04/09 07:05:55;;;;;;;18.95;3.03;;;6.60;99.90;;;;;;5051925;28;20124;-76
2022/04/09 07:08:21;;;;;;;13.57;2.03;;;6.60;99.90;;;;;;5053647;28;20496;-76
2022/04/09 07:10:47;;;;;;;14.70;1.83;;;6.60;99.90;;;;;;5055647;28;20056;-76
2022/04/09 07:13:12;;;;;;;19.60;2.25;;;6.70;99.90;;;;;;5055907;28;20084;-76
2022/04/09 07:15:38;;;;;;;14.60;1.58;;;6.80;99.90;;;;;;5055925;28;20056;-76
2022/04/09 07:18:04;;;;;;;13.98;1.85;;;6.90;99.90;;;;;;5055628;28;20045;-74
2022/04/09 07:20:30;;;;;;;12.57;1.48;;;7.00;99.90;;;;;;5057052;28;20056;-76
2022/04/09 07:22:56;;;;;;;10.68;1.63;;;7.30;99.90;;;;;;5057304;28;20045;-79
2022/04/09 07:25:22;;;;;;;16.98;2.22;;;7.20;99.90;;;;;;5055349;28;20056;-75
2022/04/09 07:27:48;;;;;;;12.43;1.02;;;7.20;99.90;;;;;;5056079;28;20124;-74
2022/04/09 07:30:18;;;;;;;12.63;1.40;;;7.10;99.90;;;;;;5055601;28;20055;-74
2022/04/09 07:32:45;;;;;;;11.65;1.30;;;7.10;99.90;;;;;;5055466;28;20083;-72
2022/04/09 07:35:12;;;;;;;12.93;1.20;;;7.10;99.90;;;;;;5055405;28;20084;-75
2022/04/09 07:37:43;;;;;;;18.40;1.67;;;7.30;99.90;;;;;;5054942;28;20059;-75
2022/04/09 07:40:11;;;;;;;14.40;1.70;;;7.40;99.90;;;;;;5055379;28;20044;-75
2022/04/09 07:42:38;;;;;;;17.67;1.63;;;7.50;99.90;;;;;;5056054;28;20057;-75
2022/04/09 07:45:04;;;;;;;15.38;1.05;;;7.50;99.90;;;;;;5022609;28;20084;-75
2022/04/09 07:47:30;;;;;;;13.98;1.38;;;7.50;99.90;;;;;;5038569;28;20499;-75
2022/04/09 07:49:56;;;;;;;11.27;1.70;;;7.40;99.90;;;;;;5055125;28;20049;-74
2022/04/09 07:52:22;;;;;;;13.60;1.17;;;7.50;99.90;;;;;;5054706;28;20078;-75
2022/04/09 07:54:47;;;;;;;14.63;1.77;;;7.70;99.90;;;;;;5055654;28;20562;-74
2022/04/09 07:57:14;;;;;;;9.45;2.63;;;7.80;99.90;;;;;;5045032;28;20112;-73
2022/04/09 07:59:40;;;;;;;10.70;0.93;;;7.60;99.90;;;;;;5057478;28;20053;-73
2022/04/09 08:02:06;;;;;;;9.70;0.98;;;7.50;99.90;;;;;;5055220;28;20048;-74
2022/04/09 08:04:32;;;;;;;11.82;1.35;;;7.40;99.90;;;;;;5038361;28;20080;-74
2022/04/09 08:06:57;;;;;;;13.27;1.02;;;7.50;99.90;;;;;;5054428;28;20045;-75
2022/04/09 08:09:23;;;;;;;13.82;1.23;;;7.70;99.90;;;;;;5038242;28;20387;-74
2022/04/09 08:11:49;;;;;;;13.80;1.90;;;7.80;99.90;;;;;;5054956;28;20048;-74
2022/04/09 08:14:14;;;;;;;18.83;2.47;;;8.00;99.90;;;;;;5054885;28;20087;-73
2022/04/09 08:16:40;;;;;;;17.02;1.77;;;8.00;99.90;;;;;;5055058;28;20494;-74
2022/04/09 08:19:07;;;;;;;13.15;1.33;;;8.20;99.90;;;;;;5054584;28;20044;-75
2022/04/09 08:21:33;;;;;;;16.10;1.52;;;8.30;99.90;;;;;;5054594;28;20061;-76
2022/04/09 08:23:59;;;;;;;16.20;2.08;;;8.30;99.90;;;;;;5055417;28;20041;-76
2022/04/09 08:26:24;;;;;;;17.08;2.03;;;8.20;99.90;;;;;;5054607;28;20403;-76
2022/04/09 08:28:50;;;;;;;10.90;1.17;;;8.10;99.90;;;;;;5038414;28;20053;-75
2022/04/09 08:31:16;;;;;;;12.75;2.55;;;8.00;99.90;;;;;;5054400;28;20084;-75
2022/04/09 08:33:42;;;;;;;9.30;1.02;;;8.00;99.90;;;;;;5054528;28;20045;-76
2022/04/09 08:36:08;;;;;;;10.93;1.27;;;8.20;99.90;;;;;;5055590;28;20053;-76
2022/04/09 08:38:34;;;;;;;13.73;1.80;;;8.20;99.90;;;;;;5053749;28;20055;-76
2022/04/09 08:41:03;;;;;;;14.40;1.17;;;8.40;99.90;;;;;;5050956;28;20060;-76
2022/04/09 08:43:30;;;;;;;11.32;1.30;;;8.70;99.90;;;;;;5055362;28;20049;-76
2022/04/09 08:46:00;;;;;;;16.17;1.95;;;8.70;99.90;;;;;;5037701;28;20516;-76
2022/04/09 08:48:27;;;;;;;10.55;1.05;;;8.60;99.90;;;;;;5054119;28;20057;-76
2022/04/09 08:50:54;;;;;;;8.65;1.23;;;8.70;99.90;;;;;;5053671;28;20510;-76
2022/04/09 08:53:19;;;;;;;11.95;2.15;;;9.00;99.90;;;;;;5055119;28;20045;-76
2022/04/09 08:55:46;;;;;;;9.90;1.27;;;9.00;99.90;;;;;;5054275;28;20067;-76
2022/04/09 08:58:12;;;;;;;14.77;2.42;;;8.90;99.90;;;;;;5053793;28;20045;-77
2022/04/09 09:00:39;;;;;;;9.38;1.02;;;8.80;99.90;;;;;;5037353;28;20044;-76
2022/04/09 09:03:10;;;;;;;12.25;1.35;;;8.70;99.90;;;;;;5053701;28;20052;-74
2022/04/09 09:05:41;;;;;;;10.10;1.10;;;8.70;99.90;;;;;;5053601;28;20056;-75
2022/04/09 09:08:08;;;;;;;4.80;0.57;;;8.40;99.90;;;;;;5053443;28;20135;-75
2022/04/09 09:10:35;;;;;;;6.15;0.65;;;8.00;99.90;;;;;;5054033;28;20080;-75
2022/04/09 09:13:10;;;;;;;8.60;0.88;;;7.80;99.90;;;;;;5053402;28;20056;-71
2022/04/09 09:15:52;;;;;;;2.78;0.65;;;7.70;99.90;;;;;;5054689;28;20051;-74
2022/04/09 09:18:27;;;;;;;3.17;0.40;;;7.70;99.90;;;;;;5053368;28;20080;-74
2022/04/09 09:20:56;;;;;;;7.77;1.07;;;7.60;99.90;;;;;;5054537;28;20063;-73
2022/04/09 09:23:23;;;;;;;6.93;0.80;;;7.70;99.90;;;;;;5053601;28;20092;-73
2022/04/09 09:25:54;;;;;;;2.80;0.65;;;8.00;99.90;;;;;;5053151;28;20037;-73
2022/04/09 09:28:34;;;;;;;5.75;0.77;;;8.00;99.90;;;;;;5036768;28;20052;-74
2022/04/09 09:31:01;;;;;;;8.18;0.63;;;8.00;99.90;;;;;;5053109;28;20084;-74
2022/04/09 09:33:28;;;;;;;7.60;0.60;;;8.30;99.90;;;;;;5053246;28;20049;-74
2022/04/09 09:35:55;;;;;;;5.68;0.60;;;8.50;99.90;;;;;;5053374;28;20091;-74
2022/04/09 09:38:29;;;;;;;6.25;0.63;;;8.80;99.90;;;;;;5052622;28;20053;-74
2022/04/09 09:40:57;;;;;;;10.90;0.80;;;9.00;99.90;;;;;;5052729;28;20060;-74
2022/04/09 09:43:24;;;;;;;9.40;1.23;;;8.90;99.90;;;;;;5052862;28;20060;-74
2022/04/09 09:45:53;;;;;;;8.55;1.23;;;9.00;99.90;;;;;;5052999;28;20102;-74
2022/04/09 09:48:29;;;;;;;17.70;1.35;;;9.20;99.90;;;;;;5036797;28;20045;-73
2022/04/09 09:50:59;;;;;;;10.82;1.73;;;9.30;99.90;;;;;;5052925;28;20511;-73
2022/04/09 09:53:32;;;;;;;8.10;1.50;;;9.50;99.90;;;;;;5053070;28;20045;-73
2022/04/09 09:56:02;;;;;;;11.65;1.00;;;9.50;99.90;;;;;;5036392;28;20091;-74
2022/04/09 09:58:28;;;;;;;15.40;0.93;;;8.50;99.90;;;;;;5052830;28;20131;-80
2022/04/09 10:00:58;;;;;;;9.68;0.95;;;7.70;99.90;;;;;;5052885;28;20079;-77
2022/04/09 10:03:27;;;;;;;10.88;0.77;;;7.40;99.90;;;;;;5052887;28;20468;-76
2022/04/09 10:05:53;;;;;;;3.95;0.85;;;7.30;99.90;;;;;;5052538;28;20052;-77
2022/04/09 10:08:20;;;;;;;6.72;0.50;;;7.10;99.90;;;;;;5052653;28;20499;-77
2022/04/09 10:10:48;;;;;;;3.65;0.52;;;6.90;99.90;;;;;;5052752;28;20056;-76
2022/04/09 10:13:25;;;;;;;4.25;0.43;;;7.20;99.90;;;;;;5052465;28;20104;-76
2022/04/09 10:15:52;;;;;;;3.15;0.38;;;7.50;99.90;;;;;;5036118;28;20061;-77
2022/04/09 10:18:25;;;;;;;2.92;0.40;;;7.80;99.90;;;;;;5052633;28;20084;-77
2022/04/09 10:20:53;;;;;;;2.78;0.47;;;8.20;99.90;;;;;;5052684;28;20052;-74
2022/04/09 10:23:20;;;;;;;1.27;0.20;;;8.60;99.90;;;;;;5054321;28;20049;-75
2022/04/09 10:25:46;;;;;;;2.03;0.30;;;8.60;99.90;;;;;;5036214;28;20049;-78
2022/04/09 10:28:13;;;;;;;2.25;0.20;;;8.80;99.90;;;;;;5052562;28;20056;-76
2022/04/09 10:30:41;;;;;;;3.58;0.20;;;9.10;99.90;;;;;;5052401;28;20103;-72
2022/04/09 10:33:24;;;;;;;6.13;0.82;;;9.30;99.90;;;;;;5052531;28;20484;-74
2022/04/09 10:35:50;;;;;;;3.47;0.52;;;9.30;99.90;;;;;;5055302;28;20045;-69
2022/04/09 10:38:22;;;;;;;5.57;0.55;;;9.30;99.90;;;;;;5051769;28;20045;-74
2022/04/09 10:40:55;;;;;;;4.97;0.40;;;9.40;99.90;;;;;;5051829;28;20057;-74
2022/04/09 10:43:26;;;;;;;5.05;0.88;;;9.50;99.90;;;;;;5054622;28;20057;-75
2022/04/09 10:46:05;;;;;;;4.10;0.82;;;9.70;99.90;;;;;;5056566;28;20045;-75
2022/04/09 10:48:42;;;;;;;4.40;0.43;;;9.70;99.90;;;;;;5053353;28;20546;-74
2022/04/09 10:51:12;;;;;;;8.07;0.57;;;9.70;99.90;;;;;;5067189;28;20124;-75
2022/04/09 10:53:39;;;;;;;2.83;0.50;;;9.70;99.90;;;;;;5037839;28;20061;-73
2022/04/09 10:56:15;;;;;;;3.75;0.40;;;9.80;99.90;;;;;;5033868;28;20049;-75
2022/04/09 10:59:13;;;;;;;5.03;0.40;;;9.50;99.90;;;;;;5034466;28;20052;-73
2022/04/09 11:01:48;;;;;;;2.33;0.40;;;9.60;99.90;;;;;;5039565;28;20061;-74
2022/04/09 11:04:34;;;;;;;4.47;0.50;;;9.80;99.90;;;;;;5037029;28;20057;-72
2022/04/09 11:07:01;;;;;;;5.35;0.40;;;10.20;99.90;;;;;;5035971;28;20132;-71
2022/04/09 11:09:42;;;;;;;4.85;0.43;;;10.30;99.90;;;;;;5035581;28;20057;-72
2022/04/09 11:12:09;;;;;;;4.40;0.60;;;10.70;99.90;;;;;;5036181;28;20050;-89
2022/04/09 11:15:00;;;;;;;4.55;0.45;;;10.70;99.90;;;;;;5019644;28;20392;-72
2022/04/09 11:17:34;;;;;;;6.88;0.98;;;10.80;99.90;;;;;;5035917;28;20055;-72
2022/04/09 11:20:04;;;;;;;9.63;1.00;;;11.00;99.90;;;;;;5035762;28;20055;-72
2022/04/09 11:22:34;;;;;;;5.10;0.60;;;11.20;99.90;;;;;;5019355;28;20128;-71
2022/04/09 11:25:01;;;;;;;9.05;0.70;;;11.00;99.90;;;;;;5036109;28;20108;-71
2022/04/09 11:27:27;;;;;;;8.55;0.82;;;10.70;99.90;;;;;;5036599;28;20053;-72
2022/04/09 11:29:55;;;;;;;6.50;0.55;;;10.50;99.90;;;;;;5035836;28;20049;-72
2022/04/09 11:32:21;;;;;;;7.78;1.15;;;10.20;99.90;;;;;;5035345;28;20085;-71
2022/04/09 11:34:57;;;;;;;8.75;1.30;;;9.70;99.90;;;;;;5035558;28;20053;-71
2022/04/09 11:37:26;;;;;;;10.02;0.80;;;9.30;99.90;;;;;;5035090;28;20085;-72
2022/04/09 11:39:53;;;;;;;8.85;1.13;;;9.20;99.90;;;;;;5035704;28;20049;-71
2022/04/09 11:42:19;;;;;;;9.80;1.30;;;9.50;99.90;;;;;;5053292;28;20057;-72
2022/04/09 11:44:45;;;;;;;8.10;0.75;;;9.80;99.90;;;;;;5038547;28;20052;-72
2022/04/09 11:47:14;;;;;;;6.85;0.63;;;9.70;99.90;;;;;;5038636;28;20053;-72
2022/04/09 11:49:42;;;;;;;3.83;0.50;;;9.40;99.90;;;;;;5038756;28;20068;-72
2022/04/09 11:52:08;;;;;;;9.55;0.95;;;9.10;99.90;;;;;;5038112;28;20048;-72
2022/04/09 11:54:36;;;;;;;9.52;0.98;;;8.80;99.90;;;;;;5038072;28;20040;-73
2022/04/09 11:57:03;;;;;;;7.13;0.88;;;8.90;99.90;;;;;;5038439;28;20475;-72
2022/04/09 11:59:29;;;;;;;12.40;1.27;;;9.20;99.90;;;;;;5038229;28;20082;-71
2022/04/09 12:01:56;;;;;;;20.88;1.15;;;9.80;99.90;;;;;;5038676;28;20053;-71
2022/04/09 12:04:23;;;;;;;7.65;1.15;;;10.30;99.90;;;;;;5021923;28;20049;-70
2022/04/09 12:06:50;;;;;;;4.82;0.70;;;10.00;99.90;;;;;;5022081;28;20126;-71
2022/04/09 12:09:16;;;;;;;3.65;0.60;;;9.40;99.90;;;;;;5021436;28;20095;-71
2022/04/09 12:11:52;;;;;;;10.25;0.63;;;9.10;99.90;;;;;;5021664;28;20043;-73
2022/04/09 12:14:20;;;;;;;7.43;0.80;;;8.90;99.90;;;;;;5055946;28;20053;-72
2022/04/09 12:16:47;;;;;;;4.65;0.70;;;8.90;99.90;;;;;;5032540;28;20048;-72
2022/04/09 12:19:13;;;;;;;5.57;0.65;;;9.50;99.90;;;;;;5031841;28;20399;-71
2022/04/09 12:21:39;;;;;;;4.63;0.52;;;10.00;99.90;;;;;;5038107;28;20398;-71
2022/04/09 12:24:10;;;;;;;4.65;0.40;;;10.20;99.90;;;;;;5021833;28;20045;-69
2022/04/09 12:26:42;;;;;;;4.53;0.60;;;10.30;99.90;;;;;;5038138;28;20503;-71
2022/04/09 12:29:13;;;;;;;5.72;0.55;;;10.50;99.90;;;;;;5038060;28;20040;-71
2022/04/09 12:31:41;;;;;;;6.72;0.60;;;10.70;99.90;;;;;;5054262;28;20089;-71
2022/04/09 12:34:07;;;;;;;4.10;0.50;;;10.60;99.90;;;;;;5037342;28;20046;-70
2022/04/09 12:36:33;;;;;;;4.15;0.60;;;10.30;99.90;;;;;;5055228;28;20491;-70
2022/04/09 12:39:00;;;;;;;8.07;1.10;;;10.50;99.90;;;;;;5020590;28;20045;-70
2022/04/09 12:41:26;;;;;;;4.55;0.63;;;10.40;99.90;;;;;;5055191;28;20061;-71
2022/04/09 12:43:52;;;;;;;7.68;0.70;;;10.40;99.90;;;;;;5054727;28;20436;-70
2022/04/09 12:46:19;;;;;;;6.28;0.80;;;10.40;99.90;;;;;;5055118;28;20045;-74
2022/04/09 12:48:47;;;;;;;5.72;0.70;;;10.50;99.90;;;;;;5054989;28;20044;-71
2022/04/09 12:51:18;;;;;;;5.85;0.75;;;10.70;99.90;;;;;;5054973;28;20037;-71
2022/04/09 12:53:45;;;;;;;8.75;0.90;;;11.40;99.90;;;;;;5055588;28;20037;-71